Time;durP1;ratioP1;P1;durP2;ratioP2;P2;SDS_P1;SDS_P2;PMS_P1;PMS_P2;Temp;Humidity;BMP_temperature;BMP_pressure;BME280_temperature;BME280_humidity;BME280_pressure;Samples;Min_cycle;Max_cycle;Signal;HPM_P1;HPM_P2
2023/03/23 00:40:29;;;;;;;;;;;;;;;;;;;;;
2023/03/23 03:36:51;;;;;;;2.40;1.50;;;18.10;56.80;;;;;;4818078;29;20195;-85
2023/03/23 08:30:15;;;;;;;;;;;;;;;;;;;;;
2023/03/23 08:49:52;;;;;;;;;;;;;;;;;;;;;
2023/03/23 08:52:35;;;;;;;1.60;1.08;;;18.40;55.20;;;;;;4761375;30;20286;-86
2023/03/23 08:55:59;;;;;;;;;;;;;;;;;;;;;
2023/03/23 08:59:06;;;;;;;1.10;0.90;;;18.40;54.40;;;;;;4688959;30;20752;-87
2023/03/23 09:01:56;;;;;;;1.27;1.02;;;18.60;54.70;;;;;;4645667;30;20222;-88
2023/03/23 09:04:24;;;;;;;3.10;1.13;;;18.60;54.20;;;;;;4640406;30;20269;-87
2023/03/23 09:06:57;;;;;;;2.88;1.35;;;18.60;54.60;;;;;;4641690;30;20207;-87
2023/03/23 09:15:55;;;;;;;2.17;1.00;;;18.60;54.10;;;;;;4560977;31;20196;-87
2023/03/23 09:18:23;;;;;;;3.80;1.13;;;18.60;54.10;;;;;;4527977;31;20207;-86
2023/03/23 09:20:59;;;;;;;1.10;0.90;;;18.60;54.00;;;;;;4553656;31;20253;-88
2023/03/23 09:23:28;;;;;;;1.17;1.00;;;18.70;53.30;;;;;;4554894;31;20192;-88
2023/03/23 09:26:01;;;;;;;2.65;1.30;;;18.80;53.40;;;;;;4568553;31;20195;-87
2023/03/23 09:28:56;;;;;;;3.42;1.02;;;18.80;52.60;;;;;;4597320;31;20579;-87
2023/03/23 09:31:26;;;;;;;1.85;1.08;;;18.80;53.40;;;;;;4610028;31;20298;-87
2023/03/23 09:37:14;;;;;;;1.05;0.90;;;18.80;54.10;;;;;;4585340;31;20255;-87
2023/03/23 09:39:54;;;;;;;3.55;1.20;;;18.80;53.50;;;;;;4579229;31;20239;-87
2023/03/23 09:42:38;;;;;;;1.40;1.10;;;18.80;53.50;;;;;;4567016;31;20196;-87
2023/03/23 09:45:36;;;;;;;2.15;1.08;;;18.90;53.70;;;;;;4572737;31;20263;-88
2023/03/23 09:48:39;;;;;;;1.27;0.93;;;18.80;53.90;;;;;;4601829;31;20672;-87
2023/03/23 09:52:10;;;;;;;5.35;1.65;;;18.80;53.70;;;;;;4599960;31;20206;-88
2023/03/23 09:54:36;;;;;;;1.45;0.95;;;18.80;53.90;;;;;;4594021;31;20215;-87
2023/03/23 09:57:38;;;;;;;4.13;0.95;;;18.80;53.20;;;;;;4578284;31;20199;-87
2023/03/23 10:00:47;;;;;;;2.95;1.05;;;18.90;52.90;;;;;;4563578;31;20207;-88
2023/03/23 10:03:23;;;;;;;2.72;1.10;;;18.90;53.40;;;;;;4551499;31;20208;-88
2023/03/23 10:05:53;;;;;;;3.13;1.10;;;19.00;52.50;;;;;;4530882;31;20225;-88
2023/03/23 10:08:35;;;;;;;2.83;0.85;;;19.00;53.30;;;;;;4535993;31;20215;-86
2023/03/23 10:11:12;;;;;;;2.30;0.80;;;18.90;53.10;;;;;;4531675;31;20282;-86
2023/03/23 10:13:50;;;;;;;2.15;0.88;;;19.00;52.90;;;;;;4509022;31;20206;-87
2023/03/23 10:16:23;;;;;;;5.45;1.10;;;18.90;53.20;;;;;;4581944;31;20203;-88
2023/03/23 10:19:12;;;;;;;2.17;1.10;;;18.90;53.20;;;;;;4576960;31;20678;-88
2023/03/23 10:22:06;;;;;;;1.20;0.80;;;18.90;52.90;;;;;;4541417;31;20216;-86
2023/03/23 10:24:43;;;;;;;1.40;1.00;;;19.00;52.60;;;;;;4551871;31;20721;-86
2023/03/23 10:27:29;;;;;;;2.25;1.00;;;18.90;52.50;;;;;;4564497;31;20303;-87
2023/03/23 10:30:34;;;;;;;2.70;1.15;;;18.80;52.60;;;;;;4612754;31;20211;-87
2023/03/23 10:33:34;;;;;;;1.60;1.17;;;18.80;52.90;;;;;;4603214;30;20193;-87
2023/03/23 10:36:17;;;;;;;2.30;1.00;;;18.80;52.60;;;;;;4619454;31;20219;-86
2023/03/23 10:39:14;;;;;;;1.23;0.82;;;18.80;52.70;;;;;;4605215;31;20193;-86
2023/03/23 10:42:02;;;;;;;2.53;0.93;;;18.80;52.70;;;;;;4584401;31;20346;-86
2023/03/23 10:44:32;;;;;;;1.98;1.20;;;18.80;52.60;;;;;;4627020;31;20222;-87
2023/03/23 10:47:02;;;;;;;2.10;0.88;;;18.70;53.10;;;;;;4631710;31;20257;-86
2023/03/23 10:49:33;;;;;;;2.55;0.80;;;18.80;53.00;;;;;;4614830;31;20738;-85
2023/03/23 10:52:14;;;;;;;1.83;1.00;;;18.80;53.00;;;;;;4616698;31;20291;-87
2023/03/23 10:54:49;;;;;;;1.60;0.77;;;18.80;52.50;;;;;;4628429;31;20195;-85
2023/03/23 10:57:24;;;;;;;1.80;1.00;;;18.80;53.30;;;;;;4663369;30;20563;-85
2023/03/23 11:00:08;;;;;;;1.77;0.95;;;18.70;52.70;;;;;;4699820;30;20282;-86
2023/03/23 11:02:47;;;;;;;1.92;1.00;;;18.80;53.00;;;;;;4702646;30;20254;-86
2023/03/23 11:05:18;;;;;;;1.40;1.05;;;18.70;52.60;;;;;;4686634;30;20273;-87
2023/03/23 11:07:52;;;;;;;1.30;1.05;;;18.80;52.70;;;;;;4714030;30;20214;-87
2023/03/23 11:10:35;;;;;;;1.85;1.13;;;18.70;52.00;;;;;;4720657;30;20194;-88
2023/03/23 11:13:04;;;;;;;1.83;1.00;;;18.80;52.40;;;;;;4733534;30;20194;-87
2023/03/23 11:15:37;;;;;;;1.33;1.00;;;18.80;52.30;;;;;;4741303;30;20272;-87
2023/03/23 11:18:09;;;;;;;1.50;1.02;;;18.70;52.20;;;;;;4741514;30;20216;-86
2023/03/23 11:20:39;;;;;;;2.05;0.88;;;18.80;52.40;;;;;;4740015;30;20196;-85
2023/03/23 11:23:16;;;;;;;1.52;0.80;;;18.80;52.30;;;;;;4739160;30;20250;-86
2023/03/23 11:26:15;;;;;;;1.83;0.82;;;18.80;51.40;;;;;;4738700;29;20208;-85
2023/03/23 11:28:53;;;;;;;1.88;0.95;;;18.80;51.40;;;;;;4794082;29;20193;-86
2023/03/23 11:31:31;;;;;;;0.95;0.80;;;18.80;51.40;;;;;;4794529;29;20249;-87
2023/03/23 11:34:16;;;;;;;1.52;1.10;;;18.70;51.60;;;;;;4810580;29;20193;-88
2023/03/23 11:36:43;;;;;;;1.85;0.95;;;18.80;51.60;;;;;;4814206;29;20177;-87
2023/03/23 11:39:24;;;;;;;1.80;1.02;;;18.80;51.90;;;;;;4827887;29;20189;-88
2023/03/23 11:41:53;;;;;;;0.98;0.88;;;18.80;51.90;;;;;;4827408;29;20173;-85
2023/03/23 11:44:20;;;;;;;1.73;1.00;;;18.80;51.90;;;;;;4827338;29;20193;-87
2023/03/23 11:47:12;;;;;;;2.53;1.05;;;18.80;51.40;;;;;;4812303;29;20324;-86
2023/03/23 11:49:47;;;;;;;1.40;0.93;;;18.80;51.80;;;;;;4772297;30;20187;-86
2023/03/23 11:52:36;;;;;;;2.63;1.00;;;18.80;50.70;;;;;;4772176;30;20189;-86
2023/03/23 11:55:12;;;;;;;1.83;0.90;;;18.80;51.50;;;;;;4757335;30;20204;-86
2023/03/23 11:57:39;;;;;;;1.00;0.80;;;18.80;51.10;;;;;;4758223;30;20194;-87
2023/03/23 12:00:22;;;;;;;1.58;0.85;;;18.80;50.50;;;;;;4757305;30;20542;-87
2023/03/23 12:03:25;;;;;;;1.58;0.90;;;18.80;51.30;;;;;;4780820;29;20343;-86
2023/03/23 12:06:02;;;;;;;2.30;1.00;;;18.80;51.30;;;;;;4807961;29;20214;-87
2023/03/23 12:08:43;;;;;;;1.20;1.00;;;18.80;50.80;;;;;;4793171;29;20182;-88
2023/03/23 12:11:36;;;;;;;2.20;1.40;;;18.70;51.30;;;;;;4809222;29;20195;-88
2023/03/23 12:14:20;;;;;;;3.60;1.00;;;18.70;51.30;;;;;;4830736;29;20283;-87
2023/03/23 12:17:24;;;;;;;4.07;1.00;;;18.70;51.40;;;;;;4834364;29;20197;-87
2023/03/23 12:20:10;;;;;;;2.75;0.90;;;18.70;50.80;;;;;;4848586;29;20240;-86
2023/03/23 12:23:06;;;;;;;2.33;1.27;;;18.80;51.00;;;;;;4834105;29;20164;-88
2023/03/23 12:25:43;;;;;;;2.80;0.75;;;18.70;50.80;;;;;;4847995;29;20204;-87
2023/03/23 12:28:41;;;;;;;2.05;0.80;;;18.80;50.90;;;;;;4818379;29;20188;-87
2023/03/23 12:31:52;;;;;;;1.05;0.85;;;18.70;50.80;;;;;;4794352;29;20195;-87
2023/03/23 12:38:48;;;;;;;2.10;1.00;;;18.70;51.00;;;;;;4746958;30;20661;-87
2023/03/23 12:52:44;;;;;;;;;;;;;;;;;;;;;
2023/03/23 13:13:05;;;;;;;1.50;1.15;;;18.90;50.00;;;;;;4792773;30;20260;-86
2023/03/23 13:16:36;;;;;;;;;;;;;;;;;;;;;
2023/03/23 13:26:14;;;;;;;1.33;0.90;;;18.90;50.50;;;;;;4687302;30;20254;-88
2023/03/23 13:29:21;;;;;;;1.35;1.00;;;18.90;50.40;;;;;;4651468;30;20192;-87
2023/03/23 13:35:47;;;;;;;;;;;;;;;;;;;;;
2023/03/23 13:39:09;;;;;;;1.35;1.10;;;18.90;50.80;;;;;;4541329;31;20284;-86
2023/03/23 13:41:18;;;;;;;2.22;0.98;;;18.90;50.60;;;;;;4539181;31;20197;-85
2023/03/23 13:44:08;;;;;;;1.60;1.00;;;19.00;50.30;;;;;;4523680;31;20206;-87
2023/03/23 13:47:32;;;;;;;2.60;0.93;;;19.00;50.40;;;;;;4557444;31;20225;-86
2023/03/23 14:21:51;;;;;;;1.98;0.90;;;19.00;50.90;;;;;;4747851;29;20194;-86
2023/03/23 14:27:28;;;;;;;3.90;0.93;;;19.00;50.20;;;;;;4668158;30;20977;-87
2023/03/23 14:30:28;;;;;;;3.05;1.13;;;19.00;50.10;;;;;;4712685;30;20243;-84
2023/03/23 14:33:55;;;;;;;;;;;;;;;;;;;;;
2023/03/23 17:47:57;;;;;;;6.47;1.45;;;19.20;51.50;;;;;;4898652;29;20206;-85
2023/03/23 17:53:26;;;;;;;4.32;1.70;;;19.10;51.70;;;;;;4777322;30;20183;-85
2023/03/23 17:56:34;;;;;;;4.68;1.65;;;19.10;51.90;;;;;;4771171;30;20278;-86
2023/03/23 17:59:11;;;;;;;3.45;1.67;;;19.20;51.90;;;;;;4771899;30;20259;-84
2023/03/23 18:01:37;;;;;;;3.40;1.63;;;19.20;52.10;;;;;;4755894;30;20195;-84
2023/03/23 18:04:21;;;;;;;;;;;;;;;;;;;;;
2023/03/23 18:07:14;;;;;;;3.28;1.70;;;19.30;52.80;;;;;;4799692;29;20307;-86
2023/03/23 18:33:52;;;;;;;4.50;1.60;;;19.30;52.90;;;;;;4877316;29;20172;-86
2023/03/23 18:36:21;;;;;;;7.22;1.60;;;19.30;52.60;;;;;;4830153;29;20195;-87
2023/03/23 18:39:32;;;;;;;4.60;1.52;;;19.30;52.60;;;;;;4847512;29;20184;-88
2023/03/23 18:41:58;;;;;;;3.55;1.70;;;19.30;52.80;;;;;;4854238;29;20326;-86
2023/03/23 19:34:28;;;;;;;3.00;1.70;;;19.10;52.70;;;;;;5501172;23;20661;-88
2023/03/23 19:37:25;;;;;;;3.65;1.70;;;19.10;52.70;;;;;;4837549;29;20194;-88
2023/03/23 19:40:43;;;;;;;;;;;;;;;;;;;;;
2023/03/23 19:43:47;;;;;;;;;;;;;;;;;;;;;
2023/03/23 19:46:32;;;;;;;;;;;;;;;;;;;;;
2023/03/23 19:49:27;;;;;;;5.38;2.10;;;19.00;52.50;;;;;;4717025;30;20218;-88
2023/03/23 19:58:50;;;;;;;2.28;1.73;;;19.00;52.80;;;;;;4722614;30;20663;-88
2023/03/23 20:01:30;;;;;;;1.63;1.50;;;19.00;52.90;;;;;;4709086;30;20196;-87
2023/03/23 20:03:56;;;;;;;2.67;1.83;;;18.90;52.90;;;;;;4705945;30;20251;-88
2023/03/23 20:06:25;;;;;;;3.15;1.55;;;19.00;52.80;;;;;;4704423;30;20201;-88
2023/03/23 20:09:00;;;;;;;3.72;1.98;;;19.00;52.80;;;;;;4691458;30;20186;-87
2023/03/23 20:11:29;;;;;;;6.00;1.98;;;19.00;52.90;;;;;;4676321;30;20298;-87
2023/03/23 20:17:42;;;;;;;5.60;1.80;;;19.00;52.90;;;;;;4683752;30;20215;-87
2023/03/23 20:20:25;;;;;;;4.95;1.83;;;19.00;52.90;;;;;;4659407;30;20188;-89
2023/03/23 20:22:54;;;;;;;3.53;1.80;;;19.00;52.80;;;;;;4642774;30;20193;-88
2023/03/23 20:25:36;;;;;;;2.70;1.95;;;19.00;52.80;;;;;;4647896;30;20231;-88
2023/03/23 20:28:55;;;;;;;6.38;1.70;;;19.00;52.80;;;;;;4682366;30;20191;-89
2023/03/23 20:34:47;;;;;;;2.80;1.80;;;18.90;52.50;;;;;;4620532;30;20242;-88
2023/03/23 20:37:45;;;;;;;2.63;1.70;;;19.00;52.30;;;;;;4660550;30;20216;-89
2023/03/23 20:43:18;;;;;;;2.90;1.70;;;19.00;52.40;;;;;;4659123;30;20197;-89
2023/03/23 20:45:47;;;;;;;4.07;1.77;;;18.90;52.50;;;;;;4643112;31;20612;-88
2023/03/23 20:48:59;;;;;;;2.15;1.67;;;18.90;52.40;;;;;;4629393;31;20200;-89
2023/03/23 20:51:50;;;;;;;2.63;1.52;;;18.90;52.50;;;;;;4644411;31;20189;-88
2023/03/23 20:54:48;;;;;;;1.85;1.70;;;18.90;52.50;;;;;;4636551;31;20194;-88
2023/03/23 20:57:27;;;;;;;2.10;1.70;;;18.90;52.40;;;;;;4625848;31;20209;-88
2023/03/23 20:59:56;;;;;;;2.33;1.85;;;19.00;52.30;;;;;;4608726;31;20242;-88
2023/03/23 21:02:48;;;;;;;2.38;1.55;;;18.90;52.20;;;;;;4595222;31;20203;-88
2023/03/23 21:05:23;;;;;;;2.33;1.33;;;18.90;52.30;;;;;;4574820;31;20229;-88
2023/03/23 21:07:57;;;;;;;2.75;1.70;;;18.90;52.90;;;;;;4564564;31;20216;-88
2023/03/23 21:10:44;;;;;;;2.22;1.60;;;18.90;52.10;;;;;;4586205;31;20200;-88
2023/03/23 21:13:17;;;;;;;2.25;1.60;;;18.90;52.20;;;;;;4574993;31;20219;-88
2023/03/23 21:16:03;;;;;;;2.85;1.55;;;18.90;52.20;;;;;;4590701;31;20803;-88
2023/03/23 21:18:43;;;;;;;1.75;1.58;;;18.80;52.10;;;;;;4608360;31;20202;-88
2023/03/23 21:21:18;;;;;;;2.47;1.42;;;18.80;52.10;;;;;;4601091;31;20205;-88
2023/03/23 21:23:55;;;;;;;1.50;1.40;;;18.80;52.00;;;;;;4581256;31;20697;-88
2023/03/23 21:26:45;;;;;;;1.58;1.48;;;18.80;51.90;;;;;;4610768;31;20206;-88
2023/03/23 21:30:01;;;;;;;2.42;1.65;;;18.80;52.00;;;;;;4612844;31;20753;-88
2023/03/23 21:32:11;;;;;;;2.88;1.50;;;18.80;51.90;;;;;;4667687;30;20215;-88
2023/03/23 21:34:41;;;;;;;2.00;1.60;;;18.80;51.90;;;;;;4684846;30;20249;-88
2023/03/23 21:37:14;;;;;;;3.35;1.67;;;18.70;51.90;;;;;;4675795;30;20306;-88
2023/03/23 21:39:48;;;;;;;2.13;1.45;;;18.80;51.90;;;;;;4650219;30;20196;-88
2023/03/23 21:42:41;;;;;;;1.77;1.42;;;18.80;51.80;;;;;;4723657;30;20284;-88
2023/03/23 21:45:20;;;;;;;2.55;1.70;;;18.80;51.70;;;;;;4752172;30;20230;-88
2023/03/23 21:47:48;;;;;;;1.50;1.40;;;18.80;51.80;;;;;;4766011;30;20188;-88
2023/03/23 21:50:34;;;;;;;;;;;;;;;;;;;;;
2023/03/23 21:53:04;;;;;;;1.35;1.20;;;18.80;51.80;;;;;;4750997;30;20267;-88
2023/03/23 21:55:49;;;;;;;4.80;1.42;;;18.80;51.80;;;;;;4794185;29;20213;-88
2023/03/23 21:58:32;;;;;;;1.85;1.50;;;18.80;51.70;;;;;;4801440;29;20200;-88
2023/03/23 22:01:11;;;;;;;2.63;1.70;;;18.80;51.80;;;;;;4734441;30;20743;-88
2023/03/23 22:04:17;;;;;;;2.30;1.40;;;18.80;51.90;;;;;;4720974;30;20200;-88
2023/03/23 22:06:57;;;;;;;2.03;1.70;;;18.80;52.10;;;;;;4722798;30;20235;-88
2023/03/23 22:09:33;;;;;;;2.22;1.60;;;18.80;52.70;;;;;;4762881;30;20173;-88
2023/03/23 22:12:18;;;;;;;1.92;1.55;;;18.70;52.50;;;;;;4732950;30;20188;-87
2023/03/23 22:15:03;;;;;;;;;;;;;;;;;;;;;
2023/03/23 22:17:38;;;;;;;1.83;1.58;;;18.70;52.80;;;;;;4753555;30;20286;-88
2023/03/23 22:20:19;;;;;;;2.00;1.58;;;18.70;52.90;;;;;;4783233;30;20191;-87
2023/03/23 22:22:57;;;;;;;4.10;1.95;;;18.80;53.60;;;;;;4715688;30;20228;-88
2023/03/23 22:25:32;;;;;;;2.47;2.03;;;18.70;52.80;;;;;;4728563;30;20259;-88
2023/03/23 22:28:06;;;;;;;2.20;1.80;;;18.80;52.70;;;;;;4701204;30;20197;-87
2023/03/23 22:30:35;;;;;;;2.72;1.95;;;18.80;52.80;;;;;;4704929;30;20277;-87
2023/03/23 22:33:16;;;;;;;1.92;1.58;;;18.70;52.80;;;;;;4780348;30;20667;-87
2023/03/23 22:35:45;;;;;;;1.77;1.67;;;18.70;52.90;;;;;;4742672;30;20266;-87
2023/03/23 22:38:26;;;;;;;2.45;1.98;;;18.70;52.90;;;;;;4779804;30;20196;-87
2023/03/23 22:41:03;;;;;;;2.50;1.80;;;18.70;53.00;;;;;;4713115;30;20194;-87
2023/03/23 22:43:39;;;;;;;2.78;1.90;;;18.70;52.90;;;;;;4714724;30;20195;-87
2023/03/23 22:46:16;;;;;;;2.67;1.77;;;18.70;53.00;;;;;;4709304;30;20230;-88
2023/03/23 22:48:48;;;;;;;2.45;1.80;;;18.70;53.00;;;;;;4692357;30;20195;-87
2023/03/23 22:51:24;;;;;;;2.03;1.77;;;18.70;53.30;;;;;;4695827;30;20195;-88
2023/03/23 22:53:58;;;;;;;2.08;1.83;;;18.70;53.20;;;;;;4681514;30;20191;-88
2023/03/23 22:56:36;;;;;;;2.75;2.20;;;18.70;53.30;;;;;;4695790;30;20194;-88
2023/03/23 22:59:18;;;;;;;2.13;1.83;;;18.70;53.20;;;;;;4694613;30;20698;-87
2023/03/23 23:01:54;;;;;;;2.55;1.92;;;18.70;53.10;;;;;;4668702;30;20261;-88
2023/03/23 23:04:34;;;;;;;3.05;1.95;;;18.70;53.10;;;;;;4671022;30;20219;-88
2023/03/23 23:07:13;;;;;;;2.53;1.83;;;18.70;53.00;;;;;;4718705;30;20284;-88
2023/03/23 23:09:50;;;;;;;3.35;1.88;;;18.70;53.00;;;;;;4758114;30;20269;-88
2023/03/23 23:12:52;;;;;;;2.13;1.70;;;18.70;52.90;;;;;;4746357;30;20611;-87
2023/03/23 23:15:19;;;;;;;2.72;2.05;;;18.60;52.80;;;;;;4744302;30;20193;-88
2023/03/23 23:17:50;;;;;;;1.70;1.45;;;18.60;52.90;;;;;;4761800;30;20619;-88
2023/03/23 23:20:27;;;;;;;1.98;1.67;;;18.70;53.00;;;;;;4764549;30;20216;-87
2023/03/23 23:23:02;;;;;;;2.22;1.70;;;18.60;52.90;;;;;;4746750;30;20262;-87
2023/03/23 23:25:36;;;;;;;2.63;1.85;;;18.60;52.90;;;;;;4733103;30;20224;-87
2023/03/23 23:28:06;;;;;;;2.58;1.85;;;18.60;52.90;;;;;;4704109;30;20253;-88
2023/03/23 23:30:46;;;;;;;2.78;2.00;;;18.60;53.00;;;;;;4719000;30;20208;-87
2023/03/23 23:33:42;;;;;;;2.70;1.70;;;18.60;53.00;;;;;;4747530;30;20191;-87
2023/03/23 23:36:13;;;;;;;2.45;2.13;;;18.60;53.10;;;;;;4691110;30;20208;-88
2023/03/23 23:38:47;;;;;;;3.10;1.88;;;18.60;53.10;;;;;;4677505;30;20207;-87
2023/03/23 23:41:16;;;;;;;2.22;1.90;;;18.60;53.10;;;;;;4677171;30;20303;-87
2023/03/23 23:43:50;;;;;;;2.42;2.00;;;18.60;53.20;;;;;;4679123;30;20204;-87
2023/03/23 23:46:21;;;;;;;3.85;1.75;;;18.60;53.10;;;;;;4658642;30;20312;-88
2023/03/23 23:49:01;;;;;;;4.32;2.03;;;18.60;53.10;;;;;;4648582;30;20192;-87
2023/03/23 23:51:40;;;;;;;2.63;2.03;;;18.60;53.20;;;;;;4663291;30;20618;-87
2023/03/23 23:54:21;;;;;;;2.40;2.17;;;18.60;53.30;;;;;;4649531;30;20196;-87
2023/03/23 23:57:06;;;;;;;3.75;1.80;;;18.40;53.30;;;;;;4652123;30;20195;-87
2023/03/23 23:59:43;;;;;;;3.38;1.80;;;18.50;53.30;;;;;;4695604;30;20270;-88
